createdAt,value
2023-05-22T00:03:00.616Z,10.71
2023-05-22T00:08:12.239Z,10.62
2023-05-22T00:13:21.032Z,10.54
2023-05-22T00:18:29.388Z,10.47
2023-05-22T00:23:37.745Z,10.40
2023-05-22T00:28:46.007Z,10.33
2023-05-22T00:33:54.131Z,10.25
2023-05-22T00:39:02.533Z,10.17
2023-05-22T00:44:11.068Z,10.11
2023-05-22T00:49:19.579Z,10.04
2023-05-22T00:54:28.036Z,9.97
2023-05-22T00:59:36.707Z,9.89
2023-05-22T01:04:46.061Z,9.83
2023-05-22T01:09:54.060Z,9.76
2023-05-22T01:15:10.634Z,9.70
2023-05-22T01:20:26.350Z,9.63
2023-05-22T01:25:55.897Z,9.57
2023-05-22T01:31:09.554Z,9.51
2023-05-22T01:36:20.637Z,9.46
2023-05-22T01:41:29.546Z,9.40
2023-05-22T01:46:37.128Z,9.35
2023-05-22T01:51:54.140Z,9.29
2023-05-22T01:57:08.110Z,9.24
2023-05-22T02:02:19.115Z,9.19
2023-05-22T02:07:27.190Z,9.14
2023-05-22T02:12:35.970Z,9.09
2023-05-22T02:17:45.868Z,9.03
2023-05-22T02:22:53.330Z,8.98
2023-05-22T02:28:00.682Z,8.92
2023-05-22T02:33:09.751Z,8.86
2023-05-22T02:38:17.253Z,8.81
2023-05-22T02:43:25.295Z,8.76
2023-05-22T02:48:32.757Z,8.71
2023-05-22T02:53:41.759Z,8.67
2023-05-22T02:58:49.131Z,8.65
2023-05-22T03:03:56.674Z,8.61
2023-05-22T03:09:05.252Z,8.67
2023-05-22T03:14:12.894Z,8.85
2023-05-22T03:19:20.632Z,9.03
2023-05-22T03:24:28.297Z,9.18
2023-05-22T03:29:36.757Z,9.31
2023-05-22T03:34:45.177Z,9.43
2023-05-22T03:39:52.820Z,9.56
2023-05-22T03:45:08.018Z,9.72
2023-05-22T03:50:16.058Z,9.89
2023-05-22T03:55:23.406Z,10.08
2023-05-22T04:00:32.223Z,10.28
2023-05-22T04:05:39.519Z,10.49
2023-05-22T04:10:47.287Z,10.72
2023-05-22T04:15:54.762Z,10.95
2023-05-22T04:21:03.385Z,11.18
2023-05-22T04:26:11.118Z,11.43
2023-05-22T04:31:18.943Z,11.69
2023-05-22T04:36:27.142Z,11.99
2023-05-22T04:41:34.776Z,12.31
2023-05-22T04:46:42.168Z,12.59
2023-05-22T04:51:50.088Z,12.86
2023-05-22T04:56:57.897Z,13.12
2023-05-22T05:02:07.201Z,13.36
2023-05-22T05:07:18.018Z,13.60
2023-05-22T05:12:25.585Z,13.85
2023-05-22T05:17:33.306Z,14.14
2023-05-22T05:22:40.934Z,14.47
2023-05-22T05:27:49.296Z,14.84
2023-05-22T05:32:58.879Z,15.22
2023-05-22T05:38:30.601Z,15.63
2023-05-22T05:43:39.063Z,15.98
2023-05-22T05:48:49.328Z,16.16
2023-05-22T05:53:57.816Z,16.55
2023-05-22T05:59:06.419Z,16.86
2023-05-22T06:04:20.526Z,17.02
2023-05-22T06:09:29.372Z,17.21
2023-05-22T06:14:46.646Z,17.41
2023-05-22T06:19:55.878Z,17.59
2023-05-22T06:25:03.834Z,17.77
2023-05-22T06:30:16.840Z,17.93
2023-05-22T06:35:29.629Z,18.10
2023-05-22T06:40:39.292Z,18.28
2023-05-22T06:46:00.089Z,18.52
2023-05-22T06:51:19.624Z,18.77
2023-05-22T06:56:30.548Z,19.04
2023-05-22T07:01:41.864Z,19.23
2023-05-22T07:06:52.682Z,19.39
2023-05-22T07:12:02.189Z,19.53
2023-05-22T07:17:12.002Z,19.66
2023-05-22T07:22:22.623Z,19.79
2023-05-22T07:27:30.409Z,19.91
2023-05-22T07:32:39.222Z,20.05
2023-05-22T07:37:48.299Z,20.19
2023-05-22T07:42:57.151Z,20.37
2023-05-22T07:48:05.367Z,20.63
2023-05-22T07:53:16.976Z,20.93
2023-05-22T07:58:26.409Z,21.21
2023-05-22T08:03:34.524Z,21.42
2023-05-22T08:08:42.371Z,21.58
2023-05-22T08:13:50.830Z,21.70
2023-05-22T08:18:58.697Z,21.81
2023-05-22T08:24:07.524Z,21.91
2023-05-22T08:29:15.754Z,22.02
2023-05-22T08:34:23.750Z,22.13
2023-05-22T08:39:31.820Z,22.24
2023-05-22T08:44:39.730Z,22.31
2023-05-22T08:49:51.674Z,22.37
2023-05-22T08:54:59.828Z,22.40
2023-05-22T09:00:09.178Z,22.44
2023-05-22T09:05:18.020Z,22.48
2023-05-22T09:10:25.698Z,22.51
2023-05-22T09:15:35.973Z,22.54
2023-05-22T09:20:43.648Z,22.58
2023-05-22T09:25:52.854Z,22.63
2023-05-22T09:31:04.163Z,22.69
2023-05-22T09:36:14.354Z,22.76
2023-05-22T09:41:26.676Z,22.85
2023-05-22T09:46:42.052Z,22.95
2023-05-22T09:51:51.305Z,23.04
2023-05-22T09:57:01.165Z,23.12
2023-05-22T10:02:11.377Z,23.17
2023-05-22T10:07:20.815Z,23.19
2023-05-22T10:12:30.563Z,23.19
2023-05-22T10:17:38.564Z,23.17
2023-05-22T10:22:49.269Z,23.13
2023-05-22T10:27:57.750Z,23.09
2023-05-22T10:33:12.868Z,23.05
2023-05-22T10:38:45.916Z,23.00
2023-05-22T10:43:54.138Z,22.93
2023-05-22T10:49:02.187Z,22.89
2023-05-22T10:54:10.345Z,22.84
2023-05-22T10:59:17.741Z,22.79
2023-05-22T11:04:26.687Z,22.78
2023-05-22T11:09:36.357Z,22.79
2023-05-22T11:14:44.542Z,22.84
2023-05-22T11:20:02.495Z,22.89
2023-05-22T11:25:12.689Z,22.94
2023-05-22T11:30:20.966Z,22.98
2023-05-22T11:35:29.170Z,23.01
2023-05-22T11:40:37.124Z,23.04
2023-05-22T11:45:45.193Z,23.05
2023-05-22T11:50:53.179Z,23.06
2023-05-22T11:56:06.374Z,23.07
2023-05-22T12:01:14.486Z,23.09
2023-05-22T12:06:22.908Z,23.13
2023-05-22T12:11:36.946Z,23.17
2023-05-22T12:16:46.358Z,23.23
2023-05-22T12:21:55.932Z,23.27
2023-05-22T12:27:03.672Z,23.32
2023-05-22T12:32:12.830Z,23.35
2023-05-22T12:37:25.671Z,23.37
2023-05-22T12:42:33.676Z,23.39
2023-05-22T12:47:42.123Z,23.40
2023-05-22T12:52:50.419Z,23.41
2023-05-22T12:57:58.722Z,23.41
2023-05-22T13:03:07.551Z,23.42
2023-05-22T13:08:16.752Z,23.43
2023-05-22T13:13:25.167Z,23.46
2023-05-22T13:18:33.275Z,23.48
2023-05-22T13:23:41.541Z,23.51
2023-05-22T13:28:49.599Z,23.54
2023-05-22T13:33:57.557Z,23.57
2023-05-22T13:39:06.684Z,23.60
2023-05-22T13:44:14.464Z,23.65
2023-05-22T13:49:22.730Z,23.67
2023-05-22T13:54:31.460Z,23.71
2023-05-22T13:59:39.577Z,23.75
2023-05-22T14:04:48.703Z,23.79
2023-05-22T14:09:58.079Z,23.83
2023-05-22T14:15:08.937Z,23.89
2023-05-22T14:20:17.834Z,23.94
2023-05-22T14:25:26.948Z,23.98
2023-05-22T14:30:35.232Z,24.01
2023-05-22T14:35:43.509Z,24.02
2023-05-22T14:40:52.637Z,24.03
2023-05-22T14:46:00.596Z,24.02
2023-05-22T14:51:08.535Z,24.00
2023-05-22T14:56:16.968Z,23.99
2023-05-22T15:01:24.895Z,23.99
2023-05-22T15:06:34.059Z,23.98
2023-05-22T15:11:46.706Z,23.99
2023-05-22T15:16:54.433Z,23.99
2023-05-22T15:22:15.710Z,24.00
2023-05-22T15:27:26.947Z,24.00
2023-05-22T16:33:49.846Z,23.45
2023-05-22T16:38:58.168Z,23.42
2023-05-22T16:44:06.114Z,23.36
2023-05-22T16:49:13.964Z,23.30
2023-05-22T16:54:22.188Z,23.23
2023-05-22T16:59:30.255Z,23.15
2023-05-22T17:04:39.000Z,23.08
2023-05-22T17:09:47.533Z,23.01
2023-05-22T17:14:55.612Z,22.93
2023-05-22T17:20:06.635Z,22.86
2023-05-22T17:25:16.040Z,22.78
2023-05-22T17:30:25.012Z,22.71
2023-05-22T17:35:33.320Z,22.65
2023-05-22T17:40:45.457Z,22.57
2023-05-22T17:45:54.956Z,22.50
2023-05-22T17:51:03.197Z,22.42
2023-05-22T17:56:11.541Z,22.34
2023-05-22T18:01:20.284Z,22.25
2023-05-22T18:06:29.142Z,22.17
2023-05-22T18:11:37.010Z,22.07
2023-05-22T18:16:45.477Z,21.98
2023-05-22T18:21:54.306Z,21.88
2023-05-22T18:27:02.416Z,21.79
2023-05-22T18:32:12.286Z,21.68
2023-05-22T18:37:21.630Z,21.57
2023-05-22T18:42:30.178Z,21.45
2023-05-22T18:47:38.562Z,21.31
2023-05-22T18:52:46.765Z,21.15
2023-05-22T18:57:54.346Z,20.96
2023-05-22T19:03:02.900Z,20.76
2023-05-22T19:08:11.814Z,20.55
2023-05-22T19:13:19.739Z,20.32
2023-05-22T19:18:28.850Z,20.09
2023-05-22T19:23:37.963Z,19.84
2023-05-22T19:28:45.741Z,19.60
2023-05-22T19:33:53.752Z,19.36
2023-05-22T19:39:02.315Z,19.12
2023-05-22T19:44:10.300Z,18.88
2023-05-22T19:49:18.577Z,18.64
2023-05-22T19:54:27.281Z,18.43
2023-05-22T19:59:36.688Z,18.23
2023-05-22T20:04:49.296Z,18.03
2023-05-22T20:09:57.704Z,17.84
2023-05-22T20:15:07.280Z,17.67
2023-05-22T20:20:16.134Z,17.51
2023-05-22T20:25:25.071Z,17.38
2023-05-22T20:30:33.060Z,17.26
2023-05-22T20:35:41.501Z,17.15
2023-05-22T20:40:50.128Z,17.05
2023-05-22T20:45:58.642Z,16.94
2023-05-22T20:51:07.290Z,16.85
2023-05-22T20:56:15.346Z,16.75
2023-05-22T21:01:22.982Z,16.65
2023-05-22T21:06:30.567Z,16.56
2023-05-22T21:11:38.729Z,16.48
2023-05-22T21:16:46.592Z,16.38
2023-05-22T21:21:54.572Z,16.30
2023-05-22T21:27:02.911Z,16.23
2023-05-22T21:32:11.406Z,16.17
2023-05-22T21:37:19.123Z,16.12
2023-05-22T21:42:34.806Z,16.08
2023-05-22T21:47:53.071Z,16.04
2023-05-22T21:53:01.771Z,16.01
2023-05-22T21:58:10.794Z,15.98
2023-05-22T22:03:18.744Z,15.96
2023-05-22T22:08:28.751Z,15.95
2023-05-22T22:13:36.517Z,15.92
2023-05-22T22:18:45.146Z,15.90
2023-05-22T22:23:52.749Z,15.87
2023-05-22T22:29:00.662Z,15.85
2023-05-22T22:34:08.544Z,15.82
2023-05-22T22:39:16.506Z,15.78
2023-05-22T22:44:24.436Z,15.76
2023-05-22T22:49:33.224Z,15.74
2023-05-22T22:54:43.072Z,15.72
2023-05-22T22:59:52.757Z,15.72
2023-05-22T23:05:01.003Z,15.72
2023-05-22T23:10:10.673Z,15.72
2023-05-22T23:15:18.839Z,15.74
2023-05-22T23:20:26.772Z,15.75
2023-05-22T23:25:35.303Z,15.76
2023-05-22T23:30:43.279Z,15.76
2023-05-22T23:35:52.480Z,15.77
2023-05-22T23:41:00.380Z,15.78
2023-05-22T23:46:08.282Z,15.78
2023-05-22T23:51:15.970Z,15.78
2023-05-22T23:56:23.944Z,15.77
